sensor_id;sensor_type;location;lat;lon;timestamp;temperature;humidity
15241;DHT22;7723;52.170;9.978;2022-07-29T00:01:51;15.10;1.00
15241;DHT22;7723;52.170;9.978;2022-07-29T00:04:19;15.10;1.00
15241;DHT22;7723;52.170;9.978;2022-07-29T00:06:46;15.10;1.00
15241;DHT22;7723;52.170;9.978;2022-07-29T00:09:14;15.10;1.00
15241;DHT22;7723;52.170;9.978;2022-07-29T00:11:41;15.10;1.00
15241;DHT22;7723;52.170;9.978;2022-07-29T00:14:08;15.20;1.00
15241;DHT22;7723;52.170;9.978;2022-07-29T00:16:37;15.10;1.00
15241;DHT22;7723;52.170;9.978;2022-07-29T00:19:04;15.20;1.00
15241;DHT22;7723;52.170;9.978;2022-07-29T00:21:32;15.20;1.00
15241;DHT22;7723;52.170;9.978;2022-07-29T00:23:59;15.20;1.00
15241;DHT22;7723;52.170;9.978;2022-07-29T00:26:26;15.10;1.00
15241;DHT22;7723;52.170;9.978;2022-07-29T00:28:57;15.10;1.00
15241;DHT22;7723;52.170;9.978;2022-07-29T00:31:25;15.10;1.00
15241;DHT22;7723;52.170;9.978;2022-07-29T00:33:53;15.00;1.00
15241;DHT22;7723;52.170;9.978;2022-07-29T00:36:21;15.00;1.00
15241;DHT22;7723;52.170;9.978;2022-07-29T00:38:47;14.90;1.00
15241;DHT22;7723;52.170;9.978;2022-07-29T00:41:15;14.90;1.00
15241;DHT22;7723;52.170;9.978;2022-07-29T00:43:42;14.90;1.00
15241;DHT22;7723;52.170;9.978;2022-07-29T00:46:10;14.90;1.00
15241;DHT22;7723;52.170;9.978;2022-07-29T00:48:37;14.90;1.00
15241;DHT22;7723;52.170;9.978;2022-07-29T00:51:07;14.90;1.00
15241;DHT22;7723;52.170;9.978;2022-07-29T00:53:35;14.90;1.00
15241;DHT22;7723;52.170;9.978;2022-07-29T00:56:04;14.80;1.00
15241;DHT22;7723;52.170;9.978;2022-07-29T00:58:31;14.70;1.00
15241;DHT22;7723;52.170;9.978;2022-07-29T01:00:59;14.70;1.00
15241;DHT22;7723;52.170;9.978;2022-07-29T01:03:26;14.70;1.00
15241;DHT22;7723;52.170;9.978;2022-07-29T01:05:54;14.60;1.00
15241;DHT22;7723;52.170;9.978;2022-07-29T01:08:23;14.60;1.00
15241;DHT22;7723;52.170;9.978;2022-07-29T01:10:51;14.60;1.00
15241;DHT22;7723;52.170;9.978;2022-07-29T01:13:19;14.60;1.00
15241;DHT22;7723;52.170;9.978;2022-07-29T01:15:51;14.60;1.00
15241;DHT22;7723;52.170;9.978;2022-07-29T01:18:24;14.60;1.00
15241;DHT22;7723;52.170;9.978;2022-07-29T01:21:16;14.60;1.00
15241;DHT22;7723;52.170;9.978;2022-07-29T01:24:05;14.60;1.00
15241;DHT22;7723;52.170;9.978;2022-07-29T01:26:43;14.60;1.00
15241;DHT22;7723;52.170;9.978;2022-07-29T01:29:17;14.60;1.00
15241;DHT22;7723;52.170;9.978;2022-07-29T01:31:48;14.50;1.00
15241;DHT22;7723;52.170;9.978;2022-07-29T01:34:21;14.40;1.00
15241;DHT22;7723;52.170;9.978;2022-07-29T01:36:54;14.40;1.00
15241;DHT22;7723;52.170;9.978;2022-07-29T01:39:27;14.40;1.00
15241;DHT22;7723;52.170;9.978;2022-07-29T01:41:58;14.30;1.00
15241;DHT22;7723;52.170;9.978;2022-07-29T01:44:33;14.30;1.00
15241;DHT22;7723;52.170;9.978;2022-07-29T01:47:06;14.30;1.00
15241;DHT22;7723;52.170;9.978;2022-07-29T01:49:37;14.20;1.00
15241;DHT22;7723;52.170;9.978;2022-07-29T01:52:10;14.20;1.00
15241;DHT22;7723;52.170;9.978;2022-07-29T01:54:41;14.20;1.00
15241;DHT22;7723;52.170;9.978;2022-07-29T01:57:14;14.10;1.00
15241;DHT22;7723;52.170;9.978;2022-07-29T01:59:45;14.10;1.00
15241;DHT22;7723;52.170;9.978;2022-07-29T02:02:15;14.00;1.00
15241;DHT22;7723;52.170;9.978;2022-07-29T02:04:44;14.00;1.00
15241;DHT22;7723;52.170;9.978;2022-07-29T02:07:18;13.90;1.00
15241;DHT22;7723;52.170;9.978;2022-07-29T02:09:47;13.90;1.00
15241;DHT22;7723;52.170;9.978;2022-07-29T02:12:17;13.80;1.00
15241;DHT22;7723;52.170;9.978;2022-07-29T02:14:49;13.80;1.80
15241;DHT22;7723;52.170;9.978;2022-07-29T02:17:22;13.70;1.90
15241;DHT22;7723;52.170;9.978;2022-07-29T02:19:52;13.80;3.20
15241;DHT22;7723;52.170;9.978;2022-07-29T02:22:21;13.80;2.50
15241;DHT22;7723;52.170;9.978;2022-07-29T02:24:51;13.70;3.10
15241;DHT22;7723;52.170;9.978;2022-07-29T02:27:20;13.80;2.90
15241;DHT22;7723;52.170;9.978;2022-07-29T02:29:51;13.80;2.80
15241;DHT22;7723;52.170;9.978;2022-07-29T02:32:20;13.80;3.30
15241;DHT22;7723;52.170;9.978;2022-07-29T02:34:49;13.80;2.90
15241;DHT22;7723;52.170;9.978;2022-07-29T02:37:18;13.90;3.90
15241;DHT22;7723;52.170;9.978;2022-07-29T02:39:47;13.90;4.70
15241;DHT22;7723;52.170;9.978;2022-07-29T02:42:16;13.90;4.80
15241;DHT22;7723;52.170;9.978;2022-07-29T02:44:44;13.90;5.30
15241;DHT22;7723;52.170;9.978;2022-07-29T02:47:18;13.90;6.10
15241;DHT22;7723;52.170;9.978;2022-07-29T02:49:51;13.90;7.90
15241;DHT22;7723;52.170;9.978;2022-07-29T02:52:24;13.90;7.70
15241;DHT22;7723;52.170;9.978;2022-07-29T02:54:55;13.90;7.30
15241;DHT22;7723;52.170;9.978;2022-07-29T02:57:30;13.90;8.90
15241;DHT22;7723;52.170;9.978;2022-07-29T03:00:02;13.90;7.60
15241;DHT22;7723;52.170;9.978;2022-07-29T03:02:37;13.80;8.10
15241;DHT22;7723;52.170;9.978;2022-07-29T03:05:07;13.80;8.50
15241;DHT22;7723;52.170;9.978;2022-07-29T03:07:35;13.80;8.60
15241;DHT22;7723;52.170;9.978;2022-07-29T03:10:05;13.80;8.50
15241;DHT22;7723;52.170;9.978;2022-07-29T03:12:34;13.90;8.30
15241;DHT22;7723;52.170;9.978;2022-07-29T03:15:02;13.90;7.80
15241;DHT22;7723;52.170;9.978;2022-07-29T03:17:31;13.80;7.50
15241;DHT22;7723;52.170;9.978;2022-07-29T03:20:00;13.80;7.30
15241;DHT22;7723;52.170;9.978;2022-07-29T03:22:28;13.90;8.20
15241;DHT22;7723;52.170;9.978;2022-07-29T03:24:56;13.90;7.50
15241;DHT22;7723;52.170;9.978;2022-07-29T03:27:23;13.90;7.80
15241;DHT22;7723;52.170;9.978;2022-07-29T03:29:50;13.80;7.00
15241;DHT22;7723;52.170;9.978;2022-07-29T03:32:17;13.80;8.10
15241;DHT22;7723;52.170;9.978;2022-07-29T03:34:45;13.80;7.90
15241;DHT22;7723;52.170;9.978;2022-07-29T03:37:13;13.80;8.20
15241;DHT22;7723;52.170;9.978;2022-07-29T03:39:41;13.80;7.50
15241;DHT22;7723;52.170;9.978;2022-07-29T03:42:13;13.80;7.90
15241;DHT22;7723;52.170;9.978;2022-07-29T03:44:42;13.70;8.70
15241;DHT22;7723;52.170;9.978;2022-07-29T03:47:11;13.60;9.30
15241;DHT22;7723;52.170;9.978;2022-07-29T03:49:41;13.70;11.30
15241;DHT22;7723;52.170;9.978;2022-07-29T03:52:09;13.70;10.00
15241;DHT22;7723;52.170;9.978;2022-07-29T03:54:38;13.70;9.60
15241;DHT22;7723;52.170;9.978;2022-07-29T03:57:06;13.70;8.90
15241;DHT22;7723;52.170;9.978;2022-07-29T03:59:34;13.70;9.30
15241;DHT22;7723;52.170;9.978;2022-07-29T04:02:03;13.70;8.20
15241;DHT22;7723;52.170;9.978;2022-07-29T04:04:34;13.80;8.60
15241;DHT22;7723;52.170;9.978;2022-07-29T04:07:01;13.80;8.30
15241;DHT22;7723;52.170;9.978;2022-07-29T04:09:29;13.70;7.60
15241;DHT22;7723;52.170;9.978;2022-07-29T04:11:58;13.80;10.70
15241;DHT22;7723;52.170;9.978;2022-07-29T04:14:25;13.80;8.60
15241;DHT22;7723;52.170;9.978;2022-07-29T04:16:52;13.90;9.30
15241;DHT22;7723;52.170;9.978;2022-07-29T04:19:20;13.80;7.20
15241;DHT22;7723;52.170;9.978;2022-07-29T04:21:47;13.80;7.90
15241;DHT22;7723;52.170;9.978;2022-07-29T04:24:14;13.90;8.10
15241;DHT22;7723;52.170;9.978;2022-07-29T04:26:42;13.90;7.80
15241;DHT22;7723;52.170;9.978;2022-07-29T04:29:11;14.10;8.30
15241;DHT22;7723;52.170;9.978;2022-07-29T04:31:40;14.10;4.30
15241;DHT22;7723;52.170;9.978;2022-07-29T04:34:07;14.10;8.30
15241;DHT22;7723;52.170;9.978;2022-07-29T04:36:35;14.10;4.80
15241;DHT22;7723;52.170;9.978;2022-07-29T04:39:02;14.20;5.70
15241;DHT22;7723;52.170;9.978;2022-07-29T04:41:30;14.30;3.80
15241;DHT22;7723;52.170;9.978;2022-07-29T04:43:57;14.40;5.60
15241;DHT22;7723;52.170;9.978;2022-07-29T04:46:28;14.50;4.90
15241;DHT22;7723;52.170;9.978;2022-07-29T04:48:55;14.60;1.60
15241;DHT22;7723;52.170;9.978;2022-07-29T04:51:22;14.60;1.00
15241;DHT22;7723;52.170;9.978;2022-07-29T04:53:49;14.60;1.00
15241;DHT22;7723;52.170;9.978;2022-07-29T04:56:16;14.70;1.00
15241;DHT22;7723;52.170;9.978;2022-07-29T04:58:44;14.70;1.00
15241;DHT22;7723;52.170;9.978;2022-07-29T05:01:11;14.80;1.00
15241;DHT22;7723;52.170;9.978;2022-07-29T05:03:40;14.80;1.00
15241;DHT22;7723;52.170;9.978;2022-07-29T05:06:07;14.80;1.00
15241;DHT22;7723;52.170;9.978;2022-07-29T05:08:34;14.90;1.00
15241;DHT22;7723;52.170;9.978;2022-07-29T05:11:02;15.00;1.00
15241;DHT22;7723;52.170;9.978;2022-07-29T05:13:29;15.00;1.00
15241;DHT22;7723;52.170;9.978;2022-07-29T05:15:57;14.90;1.00
15241;DHT22;7723;52.170;9.978;2022-07-29T05:18:25;14.90;1.00
15241;DHT22;7723;52.170;9.978;2022-07-29T05:20:54;15.00;1.00
15241;DHT22;7723;52.170;9.978;2022-07-29T05:23:21;15.10;1.00
15241;DHT22;7723;52.170;9.978;2022-07-29T05:25:48;15.20;1.00
15241;DHT22;7723;52.170;9.978;2022-07-29T05:28:15;15.20;1.00
15241;DHT22;7723;52.170;9.978;2022-07-29T05:30:43;15.20;1.00
15241;DHT22;7723;52.170;9.978;2022-07-29T05:33:11;15.30;1.00
15241;DHT22;7723;52.170;9.978;2022-07-29T05:35:38;15.60;1.00
15241;DHT22;7723;52.170;9.978;2022-07-29T05:38:07;15.70;1.00
15241;DHT22;7723;52.170;9.978;2022-07-29T05:40:34;16.00;1.00
15241;DHT22;7723;52.170;9.978;2022-07-29T05:43:01;16.20;1.00
15241;DHT22;7723;52.170;9.978;2022-07-29T05:45:28;16.40;1.00
15241;DHT22;7723;52.170;9.978;2022-07-29T05:47:55;16.60;1.00
15241;DHT22;7723;52.170;9.978;2022-07-29T05:50:23;17.00;1.00
15241;DHT22;7723;52.170;9.978;2022-07-29T05:52:50;17.30;1.00
15241;DHT22;7723;52.170;9.978;2022-07-29T05:55:19;17.50;1.00
15241;DHT22;7723;52.170;9.978;2022-07-29T05:57:46;17.40;1.00
15241;DHT22;7723;52.170;9.978;2022-07-29T06:00:15;17.40;1.00
15241;DHT22;7723;52.170;9.978;2022-07-29T06:02:46;17.50;1.00
15241;DHT22;7723;52.170;9.978;2022-07-29T06:05:13;17.50;1.00
15241;DHT22;7723;52.170;9.978;2022-07-29T06:07:41;17.70;1.00
15241;DHT22;7723;52.170;9.978;2022-07-29T06:10:09;17.80;1.00
15241;DHT22;7723;52.170;9.978;2022-07-29T06:12:37;17.60;1.00
15241;DHT22;7723;52.170;9.978;2022-07-29T06:15:05;17.50;1.00
15241;DHT22;7723;52.170;9.978;2022-07-29T06:17:33;17.50;1.00
15241;DHT22;7723;52.170;9.978;2022-07-29T06:20:01;17.50;1.00
15241;DHT22;7723;52.170;9.978;2022-07-29T06:22:28;17.40;1.00
15241;DHT22;7723;52.170;9.978;2022-07-29T06:24:56;17.50;1.00
15241;DHT22;7723;52.170;9.978;2022-07-29T06:27:23;18.20;1.00
15241;DHT22;7723;52.170;9.978;2022-07-29T06:29:51;19.00;1.00
15241;DHT22;7723;52.170;9.978;2022-07-29T06:32:19;19.40;1.00
15241;DHT22;7723;52.170;9.978;2022-07-29T06:34:47;19.50;1.00
15241;DHT22;7723;52.170;9.978;2022-07-29T06:37:14;19.50;1.00
15241;DHT22;7723;52.170;9.978;2022-07-29T06:39:43;19.70;1.00
15241;DHT22;7723;52.170;9.978;2022-07-29T06:42:10;19.60;1.00
15241;DHT22;7723;52.170;9.978;2022-07-29T06:44:38;19.70;1.00
15241;DHT22;7723;52.170;9.978;2022-07-29T06:47:06;20.00;1.00
15241;DHT22;7723;52.170;9.978;2022-07-29T06:49:34;20.50;1.00
15241;DHT22;7723;52.170;9.978;2022-07-29T06:52:01;20.80;1.00
15241;DHT22;7723;52.170;9.978;2022-07-29T06:54:29;21.30;1.00
15241;DHT22;7723;52.170;9.978;2022-07-29T06:56:56;21.80;1.00
15241;DHT22;7723;52.170;9.978;2022-07-29T06:59:24;22.70;1.00
15241;DHT22;7723;52.170;9.978;2022-07-29T07:01:52;22.90;1.00
15241;DHT22;7723;52.170;9.978;2022-07-29T07:04:20;23.40;1.00
15241;DHT22;7723;52.170;9.978;2022-07-29T07:06:47;23.00;1.00
15241;DHT22;7723;52.170;9.978;2022-07-29T07:09:15;22.50;1.00
15241;DHT22;7723;52.170;9.978;2022-07-29T07:11:42;22.40;1.00
15241;DHT22;7723;52.170;9.978;2022-07-29T07:14:09;21.60;1.00
15241;DHT22;7723;52.170;9.978;2022-07-29T07:16:36;21.70;1.00
15241;DHT22;7723;52.170;9.978;2022-07-29T07:19:03;21.40;1.00
15241;DHT22;7723;52.170;9.978;2022-07-29T07:21:32;21.40;1.00
15241;DHT22;7723;52.170;9.978;2022-07-29T07:24:00;21.30;1.00
15241;DHT22;7723;52.170;9.978;2022-07-29T07:26:27;21.30;1.00
15241;DHT22;7723;52.170;9.978;2022-07-29T07:28:56;21.10;1.00
15241;DHT22;7723;52.170;9.978;2022-07-29T07:31:23;20.80;1.00
15241;DHT22;7723;52.170;9.978;2022-07-29T07:33:50;20.60;1.00
15241;DHT22;7723;52.170;9.978;2022-07-29T07:36:19;20.40;1.00
15241;DHT22;7723;52.170;9.978;2022-07-29T07:38:48;20.70;1.00
15241;DHT22;7723;52.170;9.978;2022-07-29T07:41:15;21.10;1.00
15241;DHT22;7723;52.170;9.978;2022-07-29T07:43:43;21.20;1.00
15241;DHT22;7723;52.170;9.978;2022-07-29T07:46:10;21.40;1.00
15241;DHT22;7723;52.170;9.978;2022-07-29T07:48:37;21.30;1.00
15241;DHT22;7723;52.170;9.978;2022-07-29T07:51:04;21.20;1.00
15241;DHT22;7723;52.170;9.978;2022-07-29T07:53:32;21.50;1.00
15241;DHT22;7723;52.170;9.978;2022-07-29T07:56:01;21.60;1.00
15241;DHT22;7723;52.170;9.978;2022-07-29T07:58:29;22.20;1.00
15241;DHT22;7723;52.170;9.978;2022-07-29T08:00:57;22.90;1.00
15241;DHT22;7723;52.170;9.978;2022-07-29T08:03:27;23.80;1.00
15241;DHT22;7723;52.170;9.978;2022-07-29T08:05:55;24.50;1.00
15241;DHT22;7723;52.170;9.978;2022-07-29T08:08:22;24.90;1.00
15241;DHT22;7723;52.170;9.978;2022-07-29T08:10:50;24.90;1.00
15241;DHT22;7723;52.170;9.978;2022-07-29T08:13:24;25.10;1.00
15241;DHT22;7723;52.170;9.978;2022-07-29T08:15:54;24.30;1.00
15241;DHT22;7723;52.170;9.978;2022-07-29T08:18:26;23.60;1.00
15241;DHT22;7723;52.170;9.978;2022-07-29T08:20:53;23.90;1.00
15241;DHT22;7723;52.170;9.978;2022-07-29T08:23:21;24.00;1.00
15241;DHT22;7723;52.170;9.978;2022-07-29T08:25:48;23.80;1.00
15241;DHT22;7723;52.170;9.978;2022-07-29T08:28:16;23.70;1.00
15241;DHT22;7723;52.170;9.978;2022-07-29T08:30:44;23.10;1.00
15241;DHT22;7723;52.170;9.978;2022-07-29T08:33:12;23.10;1.00
15241;DHT22;7723;52.170;9.978;2022-07-29T08:35:40;23.00;1.00
15241;DHT22;7723;52.170;9.978;2022-07-29T08:38:08;23.30;1.00
15241;DHT22;7723;52.170;9.978;2022-07-29T08:40:35;23.50;1.00
15241;DHT22;7723;52.170;9.978;2022-07-29T08:43:06;23.70;1.00
15241;DHT22;7723;52.170;9.978;2022-07-29T08:45:42;23.80;1.00
15241;DHT22;7723;52.170;9.978;2022-07-29T08:48:11;23.30;1.00
15241;DHT22;7723;52.170;9.978;2022-07-29T08:50:39;23.10;1.00
15241;DHT22;7723;52.170;9.978;2022-07-29T08:53:11;23.00;1.00
15241;DHT22;7723;52.170;9.978;2022-07-29T08:55:39;23.10;1.00
15241;DHT22;7723;52.170;9.978;2022-07-29T08:58:07;23.00;1.00
15241;DHT22;7723;52.170;9.978;2022-07-29T09:00:36;23.00;1.00
15241;DHT22;7723;52.170;9.978;2022-07-29T09:03:04;23.50;1.00
15241;DHT22;7723;52.170;9.978;2022-07-29T09:05:34;23.80;1.00
15241;DHT22;7723;52.170;9.978;2022-07-29T09:08:02;23.90;1.00
15241;DHT22;7723;52.170;9.978;2022-07-29T09:10:29;24.30;1.00
15241;DHT22;7723;52.170;9.978;2022-07-29T09:12:57;24.60;1.00
15241;DHT22;7723;52.170;9.978;2022-07-29T09:15:24;25.50;1.00
15241;DHT22;7723;52.170;9.978;2022-07-29T09:17:51;25.60;1.00
15241;DHT22;7723;52.170;9.978;2022-07-29T09:20:20;24.90;1.00
15241;DHT22;7723;52.170;9.978;2022-07-29T09:22:50;24.70;1.00
15241;DHT22;7723;52.170;9.978;2022-07-29T09:25:32;24.50;1.00
15241;DHT22;7723;52.170;9.978;2022-07-29T09:28:06;24.50;1.00
15241;DHT22;7723;52.170;9.978;2022-07-29T09:30:33;24.60;1.00
15241;DHT22;7723;52.170;9.978;2022-07-29T09:33:02;24.30;1.00
15241;DHT22;7723;52.170;9.978;2022-07-29T09:35:30;24.20;1.00
15241;DHT22;7723;52.170;9.978;2022-07-29T09:38:10;24.50;1.00
15241;DHT22;7723;52.170;9.978;2022-07-29T09:40:37;24.70;1.00
15241;DHT22;7723;52.170;9.978;2022-07-29T09:43:10;25.20;1.00
15241;DHT22;7723;52.170;9.978;2022-07-29T09:45:38;25.60;1.00
15241;DHT22;7723;52.170;9.978;2022-07-29T09:48:14;25.70;1.00
15241;DHT22;7723;52.170;9.978;2022-07-29T09:50:44;25.50;1.00
15241;DHT22;7723;52.170;9.978;2022-07-29T09:53:30;25.60;1.00
15241;DHT22;7723;52.170;9.978;2022-07-29T09:55:57;25.80;1.00
15241;DHT22;7723;52.170;9.978;2022-07-29T09:58:25;25.40;1.00
15241;DHT22;7723;52.170;9.978;2022-07-29T10:00:53;25.40;1.00
15241;DHT22;7723;52.170;9.978;2022-07-29T10:03:21;25.40;1.00
15241;DHT22;7723;52.170;9.978;2022-07-29T10:06:05;25.40;1.00
15241;DHT22;7723;52.170;9.978;2022-07-29T10:08:34;24.90;1.00
15241;DHT22;7723;52.170;9.978;2022-07-29T10:11:12;24.40;1.00
15241;DHT22;7723;52.170;9.978;2022-07-29T10:13:41;24.90;1.00
15241;DHT22;7723;52.170;9.978;2022-07-29T10:16:08;25.00;1.00
15241;DHT22;7723;52.170;9.978;2022-07-29T10:18:38;24.80;1.00
15241;DHT22;7723;52.170;9.978;2022-07-29T10:21:05;25.00;1.00
15241;DHT22;7723;52.170;9.978;2022-07-29T10:23:34;25.20;1.00
15241;DHT22;7723;52.170;9.978;2022-07-29T10:26:02;25.30;1.00
15241;DHT22;7723;52.170;9.978;2022-07-29T10:28:30;25.40;1.00
15241;DHT22;7723;52.170;9.978;2022-07-29T10:31:01;25.30;1.00
15241;DHT22;7723;52.170;9.978;2022-07-29T10:33:45;25.40;1.00
15241;DHT22;7723;52.170;9.978;2022-07-29T10:36:30;25.50;1.00
15241;DHT22;7723;52.170;9.978;2022-07-29T10:39:07;25.10;1.00
15241;DHT22;7723;52.170;9.978;2022-07-29T10:42:02;25.00;1.00
15241;DHT22;7723;52.170;9.978;2022-07-29T10:44:33;25.20;1.00
15241;DHT22;7723;52.170;9.978;2022-07-29T10:47:01;25.20;1.00
15241;DHT22;7723;52.170;9.978;2022-07-29T10:49:28;25.30;1.00
15241;DHT22;7723;52.170;9.978;2022-07-29T10:52:01;25.40;1.00
15241;DHT22;7723;52.170;9.978;2022-07-29T10:54:47;25.20;1.00
15241;DHT22;7723;52.170;9.978;2022-07-29T10:57:27;25.40;1.00
15241;DHT22;7723;52.170;9.978;2022-07-29T11:00:33;25.10;1.00
15241;DHT22;7723;52.170;9.978;2022-07-29T11:03:00;25.00;1.00
15241;DHT22;7723;52.170;9.978;2022-07-29T11:05:27;25.00;1.00
15241;DHT22;7723;52.170;9.978;2022-07-29T11:08:16;24.80;1.00
15241;DHT22;7723;52.170;9.978;2022-07-29T11:10:47;24.90;1.00
15241;DHT22;7723;52.170;9.978;2022-07-29T11:13:45;24.60;1.00
15241;DHT22;7723;52.170;9.978;2022-07-29T11:16:13;24.40;1.00
15241;DHT22;7723;52.170;9.978;2022-07-29T11:19:24;24.30;1.00
15241;DHT22;7723;52.170;9.978;2022-07-29T11:21:51;24.20;1.00
15241;DHT22;7723;52.170;9.978;2022-07-29T11:24:21;24.40;1.00
15241;DHT22;7723;52.170;9.978;2022-07-29T11:27:13;24.40;1.00
15241;DHT22;7723;52.170;9.978;2022-07-29T11:29:52;24.20;1.00
15241;DHT22;7723;52.170;9.978;2022-07-29T11:32:21;24.00;1.00
15241;DHT22;7723;52.170;9.978;2022-07-29T11:34:49;24.00;1.00
15241;DHT22;7723;52.170;9.978;2022-07-29T11:37:36;24.20;1.00
15241;DHT22;7723;52.170;9.978;2022-07-29T11:40:15;24.20;1.00
15241;DHT22;7723;52.170;9.978;2022-07-29T11:42:51;24.30;1.00
15241;DHT22;7723;52.170;9.978;2022-07-29T11:45:24;24.30;1.00
15241;DHT22;7723;52.170;9.978;2022-07-29T11:47:55;24.60;1.00
15241;DHT22;7723;52.170;9.978;2022-07-29T11:50:30;24.50;1.00
15241;DHT22;7723;52.170;9.978;2022-07-29T11:52:58;24.20;1.00
15241;DHT22;7723;52.170;9.978;2022-07-29T11:55:26;24.30;1.00
15241;DHT22;7723;52.170;9.978;2022-07-29T11:57:56;24.40;1.00
15241;DHT22;7723;52.170;9.978;2022-07-29T12:00:27;24.30;1.00
15241;DHT22;7723;52.170;9.978;2022-07-29T12:02:55;24.40;1.00
15241;DHT22;7723;52.170;9.978;2022-07-29T12:05:31;24.70;1.00
15241;DHT22;7723;52.170;9.978;2022-07-29T12:08:05;24.70;1.00
15241;DHT22;7723;52.170;9.978;2022-07-29T12:10:33;24.60;1.00
15241;DHT22;7723;52.170;9.978;2022-07-29T12:13:02;24.90;1.00
15241;DHT22;7723;52.170;9.978;2022-07-29T12:15:30;25.00;1.00
15241;DHT22;7723;52.170;9.978;2022-07-29T12:17:57;24.70;1.00
15241;DHT22;7723;52.170;9.978;2022-07-29T12:20:26;24.90;1.00
15241;DHT22;7723;52.170;9.978;2022-07-29T12:22:55;25.00;1.00
15241;DHT22;7723;52.170;9.978;2022-07-29T12:25:23;25.20;1.00
15241;DHT22;7723;52.170;9.978;2022-07-29T12:27:59;25.20;1.00
15241;DHT22;7723;52.170;9.978;2022-07-29T12:30:37;25.40;1.00
15241;DHT22;7723;52.170;9.978;2022-07-29T12:33:22;25.80;1.00
15241;DHT22;7723;52.170;9.978;2022-07-29T12:35:51;25.40;1.00
15241;DHT22;7723;52.170;9.978;2022-07-29T12:38:20;25.60;1.00
15241;DHT22;7723;52.170;9.978;2022-07-29T12:40:48;25.90;1.00
15241;DHT22;7723;52.170;9.978;2022-07-29T12:43:17;25.80;1.00
15241;DHT22;7723;52.170;9.978;2022-07-29T12:45:48;25.70;1.00
15241;DHT22;7723;52.170;9.978;2022-07-29T12:48:16;25.80;1.00
15241;DHT22;7723;52.170;9.978;2022-07-29T12:50:55;25.40;1.00
15241;DHT22;7723;52.170;9.978;2022-07-29T12:53:23;25.80;1.00
15241;DHT22;7723;52.170;9.978;2022-07-29T12:55:52;26.10;1.00
15241;DHT22;7723;52.170;9.978;2022-07-29T12:58:31;26.30;1.00
15241;DHT22;7723;52.170;9.978;2022-07-29T13:01:06;26.50;1.00
15241;DHT22;7723;52.170;9.978;2022-07-29T13:03:48;26.60;1.00
15241;DHT22;7723;52.170;9.978;2022-07-29T13:06:38;26.50;1.00
15241;DHT22;7723;52.170;9.978;2022-07-29T13:09:11;26.70;1.00
15241;DHT22;7723;52.170;9.978;2022-07-29T13:11:40;26.40;1.00
15241;DHT22;7723;52.170;9.978;2022-07-29T13:14:09;26.20;1.00
15241;DHT22;7723;52.170;9.978;2022-07-29T13:17:02;26.10;1.00
15241;DHT22;7723;52.170;9.978;2022-07-29T13:19:35;26.50;1.00
15241;DHT22;7723;52.170;9.978;2022-07-29T13:22:03;26.30;1.00
15241;DHT22;7723;52.170;9.978;2022-07-29T13:24:31;26.50;1.00
15241;DHT22;7723;52.170;9.978;2022-07-29T13:26:58;26.80;1.00
15241;DHT22;7723;52.170;9.978;2022-07-29T13:29:25;26.60;1.00
15241;DHT22;7723;52.170;9.978;2022-07-29T13:31:54;26.50;1.00
15241;DHT22;7723;52.170;9.978;2022-07-29T13:34:21;26.70;1.00
15241;DHT22;7723;52.170;9.978;2022-07-29T13:36:49;26.80;1.00
15241;DHT22;7723;52.170;9.978;2022-07-29T13:39:17;26.40;1.00
15241;DHT22;7723;52.170;9.978;2022-07-29T13:41:44;26.70;1.00
15241;DHT22;7723;52.170;9.978;2022-07-29T13:44:12;26.80;1.00
15241;DHT22;7723;52.170;9.978;2022-07-29T13:46:39;26.70;1.00
15241;DHT22;7723;52.170;9.978;2022-07-29T13:49:07;26.60;1.00
15241;DHT22;7723;52.170;9.978;2022-07-29T13:51:36;27.00;1.00
15241;DHT22;7723;52.170;9.978;2022-07-29T13:54:04;27.00;1.00
15241;DHT22;7723;52.170;9.978;2022-07-29T13:56:31;26.80;1.00
15241;DHT22;7723;52.170;9.978;2022-07-29T13:58:59;26.90;1.00
15241;DHT22;7723;52.170;9.978;2022-07-29T14:01:27;27.10;1.00
15241;DHT22;7723;52.170;9.978;2022-07-29T14:03:55;27.40;1.00
15241;DHT22;7723;52.170;9.978;2022-07-29T14:06:24;27.30;1.00
15241;DHT22;7723;52.170;9.978;2022-07-29T14:08:52;27.50;1.00
15241;DHT22;7723;52.170;9.978;2022-07-29T14:11:20;27.50;1.00
15241;DHT22;7723;52.170;9.978;2022-07-29T14:13:47;27.50;1.00
15241;DHT22;7723;52.170;9.978;2022-07-29T14:16:14;27.70;1.00
15241;DHT22;7723;52.170;9.978;2022-07-29T14:18:42;27.60;1.00
15241;DHT22;7723;52.170;9.978;2022-07-29T14:21:09;27.40;1.00
15241;DHT22;7723;52.170;9.978;2022-07-29T14:23:38;27.20;1.00
15241;DHT22;7723;52.170;9.978;2022-07-29T14:26:05;27.40;1.00
15241;DHT22;7723;52.170;9.978;2022-07-29T14:28:33;27.50;1.00
15241;DHT22;7723;52.170;9.978;2022-07-29T14:31:00;27.50;1.00
15241;DHT22;7723;52.170;9.978;2022-07-29T14:33:27;27.40;1.00
15241;DHT22;7723;52.170;9.978;2022-07-29T14:35:54;27.20;1.00
15241;DHT22;7723;52.170;9.978;2022-07-29T14:38:22;27.20;1.00
15241;DHT22;7723;52.170;9.978;2022-07-29T14:40:50;27.30;1.00
15241;DHT22;7723;52.170;9.978;2022-07-29T14:43:18;27.30;1.00
15241;DHT22;7723;52.170;9.978;2022-07-29T14:45:45;27.30;1.00
15241;DHT22;7723;52.170;9.978;2022-07-29T14:48:12;27.20;1.00
15241;DHT22;7723;52.170;9.978;2022-07-29T14:50:40;27.30;1.00
15241;DHT22;7723;52.170;9.978;2022-07-29T14:53:07;27.10;1.00
15241;DHT22;7723;52.170;9.978;2022-07-29T14:55:34;27.20;1.00
15241;DHT22;7723;52.170;9.978;2022-07-29T14:58:03;27.10;1.00
15241;DHT22;7723;52.170;9.978;2022-07-29T15:00:31;27.00;1.00
15241;DHT22;7723;52.170;9.978;2022-07-29T15:02:59;26.90;1.00
15241;DHT22;7723;52.170;9.978;2022-07-29T15:05:26;27.00;1.00
15241;DHT22;7723;52.170;9.978;2022-07-29T15:07:54;26.90;1.00
15241;DHT22;7723;52.170;9.978;2022-07-29T15:10:21;26.90;1.00
15241;DHT22;7723;52.170;9.978;2022-07-29T15:12:48;26.90;1.00
15241;DHT22;7723;52.170;9.978;2022-07-29T15:15:17;27.00;1.00
15241;DHT22;7723;52.170;9.978;2022-07-29T15:17:45;27.00;1.00
15241;DHT22;7723;52.170;9.978;2022-07-29T15:20:12;27.00;1.00
15241;DHT22;7723;52.170;9.978;2022-07-29T15:22:39;27.10;1.00
15241;DHT22;7723;52.170;9.978;2022-07-29T15:25:08;27.10;1.00
15241;DHT22;7723;52.170;9.978;2022-07-29T15:27:36;27.00;1.00
15241;DHT22;7723;52.170;9.978;2022-07-29T15:30:03;27.00;1.00
15241;DHT22;7723;52.170;9.978;2022-07-29T15:32:32;26.80;1.00
15241;DHT22;7723;52.170;9.978;2022-07-29T15:34:59;26.80;1.00
15241;DHT22;7723;52.170;9.978;2022-07-29T15:37:26;26.50;1.00
15241;DHT22;7723;52.170;9.978;2022-07-29T15:39:54;26.70;1.00
15241;DHT22;7723;52.170;9.978;2022-07-29T15:42:21;26.80;1.00
15241;DHT22;7723;52.170;9.978;2022-07-29T15:44:48;26.60;1.00
15241;DHT22;7723;52.170;9.978;2022-07-29T15:47:16;26.30;1.00
15241;DHT22;7723;52.170;9.978;2022-07-29T15:49:45;26.20;1.00
15241;DHT22;7723;52.170;9.978;2022-07-29T15:52:12;26.20;1.00
15241;DHT22;7723;52.170;9.978;2022-07-29T15:54:39;26.40;1.00
15241;DHT22;7723;52.170;9.978;2022-07-29T15:57:07;26.40;1.00
15241;DHT22;7723;52.170;9.978;2022-07-29T15:59:34;26.40;1.00
15241;DHT22;7723;52.170;9.978;2022-07-29T16:02:02;26.20;1.00
15241;DHT22;7723;52.170;9.978;2022-07-29T16:04:30;26.20;1.00
15241;DHT22;7723;52.170;9.978;2022-07-29T16:06:59;26.10;1.00
15241;DHT22;7723;52.170;9.978;2022-07-29T16:09:26;26.10;1.00
15241;DHT22;7723;52.170;9.978;2022-07-29T16:11:53;26.00;1.00
15241;DHT22;7723;52.170;9.978;2022-07-29T16:14:21;25.90;1.00
15241;DHT22;7723;52.170;9.978;2022-07-29T16:16:48;25.80;1.00
15241;DHT22;7723;52.170;9.978;2022-07-29T16:19:16;25.80;1.00